sensor_id;sensor_type;location;lat;lon;timestamp;pressure;altitude;pressure_sealevel;temperature;humidity
70506;BME280;58032;49.820;6.274;2022-11-20T00:01:26;97086.97;;;5.72;100.00
70506;BME280;58032;49.820;6.274;2022-11-20T00:03:55;97083.81;;;5.70;100.00
70506;BME280;58032;49.820;6.274;2022-11-20T00:06:22;97086.88;;;5.76;100.00
70506;BME280;58032;49.820;6.274;2022-11-20T00:08:54;97093.31;;;5.73;100.00
70506;BME280;58032;49.820;6.274;2022-11-20T00:11:23;97084.44;;;5.78;100.00
70506;BME280;58032;49.820;6.274;2022-11-20T00:13:53;97083.66;;;5.61;100.00
70506;BME280;58032;49.820;6.274;2022-11-20T00:16:23;97082.97;;;5.57;100.00
70506;BME280;58032;49.820;6.274;2022-11-20T00:18:51;97081.94;;;5.50;100.00
70506;BME280;58032;49.820;6.274;2022-11-20T00:21:21;97080.72;;;5.51;100.00
70506;BME280;58032;49.820;6.274;2022-11-20T00:23:49;97077.03;;;5.54;100.00
70506;BME280;58032;49.820;6.274;2022-11-20T00:26:18;97080.28;;;5.53;100.00
70506;BME280;58032;49.820;6.274;2022-11-20T00:28:53;97073.56;;;5.50;100.00
70506;BME280;58032;49.820;6.274;2022-11-20T00:31:21;97075.47;;;5.53;100.00
70506;BME280;58032;49.820;6.274;2022-11-20T00:33:49;97082.53;;;5.58;100.00
70506;BME280;58032;49.820;6.274;2022-11-20T00:36:23;97079.75;;;5.58;100.00
70506;BME280;58032;49.820;6.274;2022-11-20T00:38:52;97072.84;;;5.63;100.00
70506;BME280;58032;49.820;6.274;2022-11-20T00:41:19;97069.69;;;5.61;100.00
70506;BME280;58032;49.820;6.274;2022-11-20T00:43:46;97074.84;;;5.62;100.00
70506;BME280;58032;49.820;6.274;2022-11-20T00:46:15;97078.34;;;5.66;100.00
70506;BME280;58032;49.820;6.274;2022-11-20T00:48:44;97082.34;;;5.65;100.00
70506;BME280;58032;49.820;6.274;2022-11-20T00:51:13;97086.97;;;5.72;100.00
70506;BME280;58032;49.820;6.274;2022-11-20T00:53:40;97081.84;;;5.70;100.00
70506;BME280;58032;49.820;6.274;2022-11-20T00:56:10;97088.72;;;5.66;100.00
70506;BME280;58032;49.820;6.274;2022-11-20T00:58:40;97069.69;;;5.61;100.00
70506;BME280;58032;49.820;6.274;2022-11-20T01:01:13;97088.47;;;5.60;100.00
70506;BME280;58032;49.820;6.274;2022-11-20T01:03:45;97077.31;;;5.60;100.00
70506;BME280;58032;49.820;6.274;2022-11-20T01:06:15;97078.44;;;5.63;100.00
70506;BME280;58032;49.820;6.274;2022-11-20T01:08:43;97073.03;;;5.55;100.00
70506;BME280;58032;49.820;6.274;2022-11-20T01:11:15;97081.84;;;5.54;100.00
70506;BME280;58032;49.820;6.274;2022-11-20T01:13:43;97080.97;;;5.57;100.00
70506;BME280;58032;49.820;6.274;2022-11-20T01:16:20;97077.03;;;5.54;100.00
70506;BME280;58032;49.820;6.274;2022-11-20T01:18:50;97080.28;;;5.53;100.00
70506;BME280;58032;49.820;6.274;2022-11-20T01:21:23;97080.19;;;5.57;100.00
70506;BME280;58032;49.820;6.274;2022-11-20T01:23:51;97081.06;;;5.53;100.00
70506;BME280;58032;49.820;6.274;2022-11-20T01:26:23;97071.00;;;5.56;100.00
70506;BME280;58032;49.820;6.274;2022-11-20T01:28:51;97071.34;;;5.58;100.00
70506;BME280;58032;49.820;6.274;2022-11-20T01:31:25;97073.72;;;5.60;100.00
70506;BME280;58032;49.820;6.274;2022-11-20T01:33:55;97075.47;;;5.53;100.00
70506;BME280;58032;49.820;6.274;2022-11-20T01:36:24;97080.28;;;5.53;100.00
70506;BME280;58032;49.820;6.274;2022-11-20T01:38:52;97077.94;;;5.51;100.00
70506;BME280;58032;49.820;6.274;2022-11-20T01:41:20;97082.44;;;5.62;100.00
70506;BME280;58032;49.820;6.274;2022-11-20T01:44:06;97079.13;;;5.67;100.00
70506;BME280;58032;49.820;6.274;2022-11-20T01:46:37;97090.38;;;5.63;100.00
70506;BME280;58032;49.820;6.274;2022-11-20T01:49:25;97075.28;;;5.61;100.00
70506;BME280;58032;49.820;6.274;2022-11-20T01:52:00;97080.44;;;5.62;100.00
70506;BME280;58032;49.820;6.274;2022-11-20T01:54:41;97069.78;;;5.57;100.00
70506;BME280;58032;49.820;6.274;2022-11-20T01:57:12;97065.50;;;5.52;100.00
70506;BME280;58032;49.820;6.274;2022-11-20T01:59:44;97064.38;;;5.50;100.00
70506;BME280;58032;49.820;6.274;2022-11-20T02:02:17;97073.91;;;5.52;100.00
70506;BME280;58032;49.820;6.274;2022-11-20T02:04:44;97078.03;;;5.48;100.00
70506;BME280;58032;49.820;6.274;2022-11-20T02:07:11;97074.06;;;5.45;100.00
70506;BME280;58032;49.820;6.274;2022-11-20T02:09:38;97070.97;;;5.43;100.00
70506;BME280;58032;49.820;6.274;2022-11-20T02:12:05;97072.69;;;5.37;100.00
70506;BME280;58032;49.820;6.274;2022-11-20T02:14:52;97073.47;;;5.37;100.00
70506;BME280;58032;49.820;6.274;2022-11-20T02:17:19;97069.38;;;5.42;100.00
70506;BME280;58032;49.820;6.274;2022-11-20T02:19:47;97078.53;;;5.43;100.00
70506;BME280;58032;49.820;6.274;2022-11-20T02:22:23;97075.66;;;5.46;100.00
70506;BME280;58032;49.820;6.274;2022-11-20T02:24:56;97075.06;;;5.38;100.00
70506;BME280;58032;49.820;6.274;2022-11-20T02:27:25;97073.22;;;5.48;100.00
70506;BME280;58032;49.820;6.274;2022-11-20T02:29:57;97074.69;;;5.53;100.00
70506;BME280;58032;49.820;6.274;2022-11-20T02:32:30;97075.13;;;5.51;100.00
70506;BME280;58032;49.820;6.274;2022-11-20T02:34:57;97076.34;;;5.50;100.00
70506;BME280;58032;49.820;6.274;2022-11-20T02:37:30;97071.19;;;5.49;100.00
70506;BME280;58032;49.820;6.274;2022-11-20T02:39:59;97067.44;;;5.55;100.00
70506;BME280;58032;49.820;6.274;2022-11-20T02:42:26;97066.75;;;5.51;100.00
70506;BME280;58032;49.820;6.274;2022-11-20T02:44:53;97067.28;;;5.46;100.00
70506;BME280;58032;49.820;6.274;2022-11-20T02:47:19;97072.66;;;5.53;100.00
70506;BME280;58032;49.820;6.274;2022-11-20T02:49:46;97065.88;;;5.54;100.00
70506;BME280;58032;49.820;6.274;2022-11-20T02:52:13;97065.50;;;5.52;100.00
70506;BME280;58032;49.820;6.274;2022-11-20T02:54:40;97060.47;;;5.47;100.00
70506;BME280;58032;49.820;6.274;2022-11-20T02:57:07;97063.97;;;5.51;100.00
70506;BME280;58032;49.820;6.274;2022-11-20T02:59:34;97064.75;;;5.52;100.00
70506;BME280;58032;49.820;6.274;2022-11-20T03:02:01;97057.13;;;5.52;100.00
70506;BME280;58032;49.820;6.274;2022-11-20T03:04:28;97050.00;;;5.51;100.00
70506;BME280;58032;49.820;6.274;2022-11-20T03:06:55;97047.22;;;5.51;100.00
70506;BME280;58032;49.820;6.274;2022-11-20T03:09:22;97049.66;;;5.49;100.00
70506;BME280;58032;49.820;6.274;2022-11-20T03:11:49;97044.56;;;5.44;100.00
70506;BME280;58032;49.820;6.274;2022-11-20T03:14:16;97049.31;;;5.47;100.00
70506;BME280;58032;49.820;6.274;2022-11-20T03:16:43;97047.03;;;5.42;100.00
70506;BME280;58032;49.820;6.274;2022-11-20T03:19:11;97048.25;;;5.41;100.00
70506;BME280;58032;49.820;6.274;2022-11-20T03:21:38;97051.06;;;5.41;100.00
70506;BME280;58032;49.820;6.274;2022-11-20T03:24:06;97042.22;;;5.43;100.00
70506;BME280;58032;49.820;6.274;2022-11-20T03:26:33;97044.25;;;5.42;100.00
70506;BME280;58032;49.820;6.274;2022-11-20T03:29:02;97051.66;;;5.49;100.00
70506;BME280;58032;49.820;6.274;2022-11-20T03:31:35;97044.56;;;5.44;100.00
70506;BME280;58032;49.820;6.274;2022-11-20T03:34:04;97044.75;;;5.37;100.00
70506;BME280;58032;49.820;6.274;2022-11-20T03:36:31;97048.25;;;5.41;100.00
70506;BME280;58032;49.820;6.274;2022-11-20T03:38:58;97039.00;;;5.44;100.00
70506;BME280;58032;49.820;6.274;2022-11-20T03:41:28;97039.16;;;5.53;100.00
70506;BME280;58032;49.820;6.274;2022-11-20T03:43:57;97029.66;;;5.51;100.00
70506;BME280;58032;49.820;6.274;2022-11-20T03:46:25;97035.59;;;5.53;100.00
70506;BME280;58032;49.820;6.274;2022-11-20T03:48:54;97030.28;;;5.42;100.00
70506;BME280;58032;49.820;6.274;2022-11-20T03:51:26;97045.03;;;5.43;100.00
70506;BME280;58032;49.820;6.274;2022-11-20T03:53:59;97044.75;;;5.37;100.00
70506;BME280;58032;49.820;6.274;2022-11-20T03:56:30;97041.47;;;5.42;100.00
70506;BME280;58032;49.820;6.274;2022-11-20T03:58:58;97033.84;;;5.43;100.00
70506;BME280;58032;49.820;6.274;2022-11-20T04:01:34;97035.16;;;5.38;100.00
70506;BME280;58032;49.820;6.274;2022-11-20T04:04:02;97041.97;;;5.37;100.00
70506;BME280;58032;49.820;6.274;2022-11-20T04:06:33;97044.75;;;5.37;100.00
70506;BME280;58032;49.820;6.274;2022-11-20T04:09:01;97046.09;;;5.32;100.00
70506;BME280;58032;49.820;6.274;2022-11-20T04:11:33;97048.72;;;5.39;100.00
70506;BME280;58032;49.820;6.274;2022-11-20T04:14:02;97044.00;;;5.36;100.00
70506;BME280;58032;49.820;6.274;2022-11-20T04:16:35;97048.81;;;5.36;100.00
70506;BME280;58032;49.820;6.274;2022-11-20T04:19:05;97045.84;;;5.27;100.00
70506;BME280;58032;49.820;6.274;2022-11-20T04:21:33;97041.81;;;5.28;100.00
70506;BME280;58032;49.820;6.274;2022-11-20T04:24:00;97045.84;;;5.27;100.00
70506;BME280;58032;49.820;6.274;2022-11-20T04:26:29;97044.63;;;5.28;100.00
70506;BME280;58032;49.820;6.274;2022-11-20T04:28:57;97048.38;;;5.21;100.00
70506;BME280;58032;49.820;6.274;2022-11-20T04:31:28;97044.81;;;5.20;100.00
70506;BME280;58032;49.820;6.274;2022-11-20T04:33:55;97049.84;;;5.09;100.00
70506;BME280;58032;49.820;6.274;2022-11-20T04:36:24;97047.59;;;5.04;100.00
70506;BME280;58032;49.820;6.274;2022-11-20T04:38:58;97048.81;;;5.03;100.00
70506;BME280;58032;49.820;6.274;2022-11-20T04:41:28;97042.88;;;5.01;100.00
70506;BME280;58032;49.820;6.274;2022-11-20T04:43:58;97041.28;;;5.00;100.00
70506;BME280;58032;49.820;6.274;2022-11-20T04:46:39;97049.25;;;5.01;100.00
70506;BME280;58032;49.820;6.274;2022-11-20T04:49:07;97045.81;;;4.94;100.00
70506;BME280;58032;49.820;6.274;2022-11-20T04:51:35;97045.56;;;4.88;100.00
70506;BME280;58032;49.820;6.274;2022-11-20T04:54:02;97047.41;;;4.95;100.00
70506;BME280;58032;49.820;6.274;2022-11-20T04:56:29;97043.41;;;4.96;100.00
70506;BME280;58032;49.820;6.274;2022-11-20T04:59:00;97049.66;;;5.00;100.00
70506;BME280;58032;49.820;6.274;2022-11-20T05:01:27;97048.44;;;5.01;100.00
70506;BME280;58032;49.820;6.274;2022-11-20T05:03:53;97053.09;;;5.07;100.00
70506;BME280;58032;49.820;6.274;2022-11-20T05:06:21;97050.72;;;5.06;100.00
70506;BME280;58032;49.820;6.274;2022-11-20T05:08:49;97056.66;;;5.08;100.00
70506;BME280;58032;49.820;6.274;2022-11-20T05:11:19;97056.56;;;5.12;100.00
70506;BME280;58032;49.820;6.274;2022-11-20T05:13:47;97049.66;;;5.16;100.00
70506;BME280;58032;49.820;6.274;2022-11-20T05:16:16;97055.59;;;5.18;100.00
70506;BME280;58032;49.820;6.274;2022-11-20T05:18:44;97047.16;;;5.22;100.00
70506;BME280;58032;49.820;6.274;2022-11-20T05:21:12;97058.22;;;5.26;100.00
70506;BME280;58032;49.820;6.274;2022-11-20T05:23:40;97063.00;;;5.25;100.00
70506;BME280;58032;49.820;6.274;2022-11-20T05:26:12;97055.88;;;5.24;100.00
70506;BME280;58032;49.820;6.274;2022-11-20T05:28:40;97057.50;;;5.21;100.00
70506;BME280;58032;49.820;6.274;2022-11-20T05:31:12;97049.03;;;5.25;100.00
70506;BME280;58032;49.820;6.274;2022-11-20T05:33:41;97063.34;;;5.27;100.00
70506;BME280;58032;49.820;6.274;2022-11-20T05:36:09;97052.72;;;5.22;100.00
70506;BME280;58032;49.820;6.274;2022-11-20T05:38:36;97057.69;;;5.31;100.00
70506;BME280;58032;49.820;6.274;2022-11-20T05:41:08;97058.50;;;5.31;100.00
70506;BME280;58032;49.820;6.274;2022-11-20T05:43:38;97053.09;;;5.24;100.00
70506;BME280;58032;49.820;6.274;2022-11-20T05:46:07;97057.19;;;5.19;100.00
70506;BME280;58032;49.820;6.274;2022-11-20T05:48:34;97055.44;;;5.26;100.00
70506;BME280;58032;49.820;6.274;2022-11-20T05:51:04;97055.97;;;5.20;100.00
70506;BME280;58032;49.820;6.274;2022-11-20T05:53:35;97063.00;;;5.25;100.00
70506;BME280;58032;49.820;6.274;2022-11-20T05:56:14;97049.84;;;5.26;100.00
70506;BME280;58032;49.820;6.274;2022-11-20T05:58:41;97051.84;;;5.25;100.00
70506;BME280;58032;49.820;6.274;2022-11-20T06:01:14;97049.94;;;5.22;100.00
70506;BME280;58032;49.820;6.274;2022-11-20T06:03:42;97058.75;;;5.20;100.00
70506;BME280;58032;49.820;6.274;2022-11-20T06:06:13;97053.00;;;5.28;100.00
70506;BME280;58032;49.820;6.274;2022-11-20T06:08:41;97049.41;;;5.27;100.00
70506;BME280;58032;49.820;6.274;2022-11-20T06:11:09;97045.41;;;5.28;100.00
70506;BME280;58032;49.820;6.274;2022-11-20T06:13:37;97049.66;;;5.33;100.00
70506;BME280;58032;49.820;6.274;2022-11-20T06:16:07;97045.84;;;5.27;100.00
70506;BME280;58032;49.820;6.274;2022-11-20T06:18:34;97045.75;;;5.30;100.00
70506;BME280;58032;49.820;6.274;2022-11-20T06:21:07;97043.41;;;5.29;100.00
70506;BME280;58032;49.820;6.274;2022-11-20T06:23:36;97046.09;;;5.32;100.00
70506;BME280;58032;49.820;6.274;2022-11-20T06:26:08;97043.31;;;5.16;100.00
70506;BME280;58032;49.820;6.274;2022-11-20T06:28:35;97053.84;;;5.25;100.00
70506;BME280;58032;49.820;6.274;2022-11-20T06:31:03;97050.72;;;5.22;100.00
70506;BME280;58032;49.820;6.274;2022-11-20T06:33:30;97056.38;;;5.19;100.00
70506;BME280;58032;49.820;6.274;2022-11-20T06:35:58;97053.41;;;5.10;100.00
70506;BME280;58032;49.820;6.274;2022-11-20T06:38:26;97056.47;;;5.15;100.00
70506;BME280;58032;49.820;6.274;2022-11-20T06:40:54;97057.34;;;5.12;100.00
70506;BME280;58032;49.820;6.274;2022-11-20T06:43:22;97061.38;;;5.11;100.00
70506;BME280;58032;49.820;6.274;2022-11-20T06:45:53;97063.97;;;5.18;100.00
70506;BME280;58032;49.820;6.274;2022-11-20T06:48:20;97067.91;;;5.21;100.00
70506;BME280;58032;49.820;6.274;2022-11-20T06:50:47;97064.66;;;5.22;100.00
70506;BME280;58032;49.820;6.274;2022-11-20T06:53:14;97072.19;;;5.26;100.00
70506;BME280;58032;49.820;6.274;2022-11-20T06:55:43;97073.84;;;5.23;100.00
70506;BME280;58032;49.820;6.274;2022-11-20T06:58:11;97068.59;;;5.25;100.00
70506;BME280;58032;49.820;6.274;2022-11-20T07:00:37;97074.97;;;5.26;100.00
70506;BME280;58032;49.820;6.274;2022-11-20T07:03:05;97070.25;;;5.22;100.00
70506;BME280;58032;49.820;6.274;2022-11-20T07:05:33;97075.41;;;5.24;100.00
70506;BME280;58032;49.820;6.274;2022-11-20T07:08:01;97073.03;;;5.22;100.00
70506;BME280;58032;49.820;6.274;2022-11-20T07:10:28;97084.56;;;5.25;100.00
70506;BME280;58032;49.820;6.274;2022-11-20T07:12:54;97087.44;;;5.21;100.00
70506;BME280;58032;49.820;6.274;2022-11-20T07:15:22;97092.16;;;5.24;100.00
70506;BME280;58032;49.820;6.274;2022-11-20T07:17:50;97099.91;;;5.16;100.00
70506;BME280;58032;49.820;6.274;2022-11-20T07:20:17;97092.06;;;5.11;100.00
70506;BME280;58032;49.820;6.274;2022-11-20T07:22:44;97097.03;;;5.20;100.00
70506;BME280;58032;49.820;6.274;2022-11-20T07:25:11;97100.53;;;5.24;100.00
70506;BME280;58032;49.820;6.274;2022-11-20T07:27:38;97096.94;;;5.23;100.00
70506;BME280;58032;49.820;6.274;2022-11-20T07:30:05;97096.84;;;5.27;100.00
70506;BME280;58032;49.820;6.274;2022-11-20T07:32:32;97102.03;;;5.29;100.00
70506;BME280;58032;49.820;6.274;2022-11-20T07:34:59;97102.34;;;5.31;100.00
70506;BME280;58032;49.820;6.274;2022-11-20T07:37:26;97096.44;;;5.29;100.00
70506;BME280;58032;49.820;6.274;2022-11-20T07:39:53;97094.25;;;5.36;100.00
70506;BME280;58032;49.820;6.274;2022-11-20T07:42:20;97097.47;;;5.35;100.00
70506;BME280;58032;49.820;6.274;2022-11-20T07:44:50;97107.94;;;5.31;100.00
70506;BME280;58032;49.820;6.274;2022-11-20T07:47:17;97101.66;;;5.27;100.00
70506;BME280;58032;49.820;6.274;2022-11-20T07:49:43;97105.13;;;5.31;100.00
70506;BME280;58032;49.820;6.274;2022-11-20T07:52:10;97104.38;;;5.30;100.00
70506;BME280;58032;49.820;6.274;2022-11-20T07:54:37;97102.34;;;5.31;100.00
70506;BME280;58032;49.820;6.274;2022-11-20T07:57:04;97107.25;;;5.27;100.00
70506;BME280;58032;49.820;6.274;2022-11-20T07:59:31;97111.16;;;5.29;100.00
70506;BME280;58032;49.820;6.274;2022-11-20T08:01:58;97113.53;;;5.47;100.00
70506;BME280;58032;49.820;6.274;2022-11-20T08:04:25;97110.03;;;5.43;100.00
70506;BME280;58032;49.820;6.274;2022-11-20T08:06:52;97118.41;;;5.43;100.00
70506;BME280;58032;49.820;6.274;2022-11-20T08:09:19;97117.53;;;5.46;100.00
70506;BME280;58032;49.820;6.274;2022-11-20T08:11:46;97119.09;;;5.64;100.00
70506;BME280;58032;49.820;6.274;2022-11-20T08:14:31;97116.84;;;5.59;100.00
70506;BME280;58032;49.820;6.274;2022-11-20T08:16:58;97118.47;;;5.56;100.00
70506;BME280;58032;49.820;6.274;2022-11-20T08:19:26;97123.88;;;5.63;100.00
70506;BME280;58032;49.820;6.274;2022-11-20T08:21:53;97116.31;;;5.64;100.00
70506;BME280;58032;49.820;6.274;2022-11-20T08:24:20;97125.56;;;5.61;100.00
70506;BME280;58032;49.820;6.274;2022-11-20T08:26:46;97123.47;;;5.65;100.00
70506;BME280;58032;49.820;6.274;2022-11-20T08:29:13;97126.09;;;5.55;100.00
70506;BME280;58032;49.820;6.274;2022-11-20T08:31:40;97123.38;;;5.52;100.00
70506;BME280;58032;49.820;6.274;2022-11-20T08:34:07;97124.16;;;5.69;100.00
70506;BME280;58032;49.820;6.274;2022-11-20T08:36:35;97124.22;;;5.82;100.00
70506;BME280;58032;49.820;6.274;2022-11-20T08:39:03;97124.59;;;6.00;100.00
70506;BME280;58032;49.820;6.274;2022-11-20T08:41:30;97119.19;;;6.23;100.00
70506;BME280;58032;49.820;6.274;2022-11-20T08:44:02;97116.22;;;6.43;100.00
70506;BME280;58032;49.820;6.274;2022-11-20T08:46:37;97115.25;;;6.49;100.00
70506;BME280;58032;49.820;6.274;2022-11-20T08:49:10;97117.66;;;6.34;100.00
70506;BME280;58032;49.820;6.274;2022-11-20T08:51:38;97119.66;;;6.05;100.00
70506;BME280;58032;49.820;6.274;2022-11-20T08:54:05;97120.97;;;5.83;100.00
70506;BME280;58032;49.820;6.274;2022-11-20T08:56:33;97118.81;;;5.75;100.00
70506;BME280;58032;49.820;6.274;2022-11-20T08:59:00;97118.56;;;5.69;100.00
70506;BME280;58032;49.820;6.274;2022-11-20T09:01:43;97124.31;;;5.78;100.00
70506;BME280;58032;49.820;6.274;2022-11-20T09:04:10;97118.44;;;5.89;100.00
70506;BME280;58032;49.820;6.274;2022-11-20T09:06:38;97128.16;;;5.84;100.00
70506;BME280;58032;49.820;6.274;2022-11-20T09:09:05;97124.03;;;5.89;100.00
70506;BME280;58032;49.820;6.274;2022-11-20T09:11:34;97113.66;;;5.90;100.00
70506;BME280;58032;49.820;6.274;2022-11-20T09:14:02;97123.50;;;6.11;100.00
70506;BME280;58032;49.820;6.274;2022-11-20T09:16:31;97122.22;;;6.28;100.00
70506;BME280;58032;49.820;6.274;2022-11-20T09:18:57;97116.63;;;5.99;100.00
70506;BME280;58032;49.820;6.274;2022-11-20T09:21:39;97121.69;;;6.04;100.00
70506;BME280;58032;49.820;6.274;2022-11-20T09:24:06;97113.03;;;5.98;100.00
70506;BME280;58032;49.820;6.274;2022-11-20T09:26:33;97117.13;;;6.10;100.00
70506;BME280;58032;49.820;6.274;2022-11-20T09:29:00;97117.59;;;6.22;100.00
70506;BME280;58032;49.820;6.274;2022-11-20T09:31:26;97110.59;;;6.30;100.00
70506;BME280;58032;49.820;6.274;2022-11-20T09:33:53;97096.09;;;6.48;100.00
70506;BME280;58032;49.820;6.274;2022-11-20T09:36:21;97101.50;;;6.68;100.00
70506;BME280;58032;49.820;6.274;2022-11-20T09:38:48;97099.69;;;6.48;100.00
70506;BME280;58032;49.820;6.274;2022-11-20T09:46:57;97097.69;;;6.62;100.00
70506;BME280;58032;49.820;6.274;2022-11-20T09:52:00;97096.72;;;6.81;100.00
70506;BME280;58032;49.820;6.274;2022-11-20T09:54:32;97094.56;;;6.73;100.00
70506;BME280;58032;49.820;6.274;2022-11-20T09:57:04;97105.91;;;6.95;100.00
70506;BME280;58032;49.820;6.274;2022-11-20T09:59:41;97091.53;;;6.67;100.00
70506;BME280;58032;49.820;6.274;2022-11-20T10:02:37;97095.03;;;6.71;100.00
70506;BME280;58032;49.820;6.274;2022-11-20T10:05:15;97083.50;;;6.69;100.00
70506;BME280;58032;49.820;6.274;2022-11-20T10:07:48;97092.38;;;6.80;100.00
70506;BME280;58032;49.820;6.274;2022-11-20T10:10:30;97095.38;;;7.12;100.00
70506;BME280;58032;49.820;6.274;2022-11-20T10:20:16;97077.59;;;7.19;100.00
70506;BME280;58032;49.820;6.274;2022-11-20T10:25:15;97064.34;;;6.55;100.00
70506;BME280;58032;49.820;6.274;2022-11-20T10:27:52;97079.25;;;6.77;100.00
70506;BME280;58032;49.820;6.274;2022-11-20T10:30:23;97074.47;;;6.78;100.00
70506;BME280;58032;49.820;6.274;2022-11-20T10:32:54;97066.72;;;6.95;100.00
70506;BME280;58032;49.820;6.274;2022-11-20T10:35:34;97060.78;;;7.06;100.00
70506;BME280;58032;49.820;6.274;2022-11-20T10:38:07;97060.97;;;7.24;100.00
70506;BME280;58032;49.820;6.274;2022-11-20T10:40:40;97055.63;;;7.17;100.00
70506;BME280;58032;49.820;6.274;2022-11-20T10:43:31;97062.19;;;7.36;100.00
70506;BME280;58032;49.820;6.274;2022-11-20T10:46:12;97056.53;;;7.14;100.00
70506;BME280;58032;49.820;6.274;2022-11-20T10:48:43;97055.84;;;7.23;100.00
70506;BME280;58032;49.820;6.274;2022-11-20T10:54:17;97047.03;;;7.11;100.00
70506;BME280;58032;49.820;6.274;2022-11-20T10:56:50;97040.31;;;6.96;100.00
70506;BME280;58032;49.820;6.274;2022-11-20T10:59:41;97045.44;;;6.97;100.00
70506;BME280;58032;49.820;6.274;2022-11-20T11:02:21;97042.88;;;7.16;100.00
70506;BME280;58032;49.820;6.274;2022-11-20T11:04:50;97045.56;;;7.20;100.00
70506;BME280;58032;49.820;6.274;2022-11-20T11:07:25;97037.56;;;7.31;100.00
70506;BME280;58032;49.820;6.274;2022-11-20T11:09:55;97030.00;;;7.19;100.00
70506;BME280;58032;49.820;6.274;2022-11-20T11:12:27;97033.53;;;7.32;100.00
70506;BME280;58032;49.820;6.274;2022-11-20T11:14:56;97029.88;;;7.22;100.00
70506;BME280;58032;49.820;6.274;2022-11-20T11:17:29;97027.88;;;6.97;100.00
70506;BME280;58032;49.820;6.274;2022-11-20T11:22:24;97026.19;;;7.12;100.00
70506;BME280;58032;49.820;6.274;2022-11-20T11:24:52;97027.31;;;7.63;100.00
70506;BME280;58032;49.820;6.274;2022-11-20T11:27:20;97016.56;;;7.62;100.00
70506;BME280;58032;49.820;6.274;2022-11-20T11:29:47;97004.97;;;7.24;100.00
70506;BME280;58032;49.820;6.274;2022-11-20T11:32:23;97000.53;;;7.14;100.00
70506;BME280;58032;49.820;6.274;2022-11-20T11:35:04;97007.94;;;7.08;100.00
70506;BME280;58032;49.820;6.274;2022-11-20T11:37:36;97004.00;;;7.18;100.00
70506;BME280;58032;49.820;6.274;2022-11-20T11:40:05;97005.50;;;6.84;100.00
70506;BME280;58032;49.820;6.274;2022-11-20T11:42:54;97008.53;;;6.64;100.00
70506;BME280;58032;49.820;6.274;2022-11-20T11:45:22;96997.66;;;6.79;100.00
70506;BME280;58032;49.820;6.274;2022-11-20T11:47:51;97000.44;;;6.92;100.00
70506;BME280;58032;49.820;6.274;2022-11-20T11:50:21;97002.59;;;6.88;100.00
70506;BME280;58032;49.820;6.274;2022-11-20T11:55:35;96993.72;;;7.15;100.00
70506;BME280;58032;49.820;6.274;2022-11-20T11:58:11;96994.56;;;7.38;100.00
70506;BME280;58032;49.820;6.274;2022-11-20T12:00:47;96989.06;;;7.34;100.00
70506;BME280;58032;49.820;6.274;2022-11-20T12:03:43;96983.31;;;7.03;100.00
70506;BME280;58032;49.820;6.274;2022-11-20T12:06:14;96982.81;;;7.17;100.00
70506;BME280;58032;49.820;6.274;2022-11-20T12:09:04;96985.97;;;7.06;100.00
70506;BME280;58032;49.820;6.274;2022-11-20T12:11:54;96975.59;;;6.94;100.00
70506;BME280;58032;49.820;6.274;2022-11-20T12:14:39;96972.03;;;6.93;100.00
70506;BME280;58032;49.820;6.274;2022-11-20T12:17:10;96977.19;;;6.69;100.00
70506;BME280;58032;49.820;6.274;2022-11-20T12:19:38;96976.41;;;6.43;100.00
70506;BME280;58032;49.820;6.274;2022-11-20T12:30:20;96972.72;;;6.59;100.00
70506;BME280;58032;49.820;6.274;2022-11-20T12:33:04;96974.03;;;6.67;100.00
70506;BME280;58032;49.820;6.274;2022-11-20T12:47:58;96950.00;;;6.44;100.00
70506;BME280;58032;49.820;6.274;2022-11-20T12:56:43;96932.53;;;6.53;100.00
70506;BME280;58032;49.820;6.274;2022-11-20T13:05:29;96912.84;;;6.56;100.00
70506;BME280;58032;49.820;6.274;2022-11-20T13:07:59;96909.94;;;6.60;100.00
70506;BME280;58032;49.820;6.274;2022-11-20T13:10:35;96911.28;;;6.55;100.00
70506;BME280;58032;49.820;6.274;2022-11-20T13:16:04;96903.69;;;6.30;100.00
70506;BME280;58032;49.820;6.274;2022-11-20T13:18:38;96885.22;;;6.45;100.00
70506;BME280;58032;49.820;6.274;2022-11-20T13:21:21;96889.94;;;6.23;100.00
70506;BME280;58032;49.820;6.274;2022-11-20T13:23:48;96892.31;;;6.11;100.00
70506;BME280;58032;49.820;6.274;2022-11-20T13:26:22;96891.28;;;6.18;100.00
70506;BME280;58032;49.820;6.274;2022-11-20T13:29:11;96892.63;;;6.00;100.00
70506;BME280;58032;49.820;6.274;2022-11-20T13:31:45;96890.44;;;5.92;100.00
70506;BME280;58032;49.820;6.274;2022-11-20T13:34:26;96892.59;;;5.88;100.00
70506;BME280;58032;49.820;6.274;2022-11-20T13:36:56;96884.66;;;5.86;100.00
70506;BME280;58032;49.820;6.274;2022-11-20T13:39:28;96887.22;;;5.80;100.00
70506;BME280;58032;49.820;6.274;2022-11-20T13:41:57;96880.94;;;5.76;100.00
70506;BME280;58032;49.820;6.274;2022-11-20T13:44:32;96878.59;;;5.75;100.00
70506;BME280;58032;49.820;6.274;2022-11-20T13:47:01;96873.56;;;5.82;100.00
70506;BME280;58032;49.820;6.274;2022-11-20T13:49:38;96862.19;;;5.77;100.00
70506;BME280;58032;49.820;6.274;2022-11-20T14:00:19;96851.75;;;5.64;100.00
70506;BME280;58032;49.820;6.274;2022-11-20T14:05:28;96845.63;;;5.82;100.00
70506;BME280;58032;49.820;6.274;2022-11-20T14:07:57;96848.31;;;5.73;100.00
70506;BME280;58032;49.820;6.274;2022-11-20T14:10:29;96843.50;;;5.74;100.00
70506;BME280;58032;49.820;6.274;2022-11-20T14:12:57;96837.44;;;5.49;100.00
70506;BME280;58032;49.820;6.274;2022-11-20T14:15:28;96841.59;;;5.58;100.00
70506;BME280;58032;49.820;6.274;2022-11-20T14:17:57;96844.56;;;5.37;100.00
70506;BME280;58032;49.820;6.274;2022-11-20T14:20:27;96836.75;;;5.45;100.00
70506;BME280;58032;49.820;6.274;2022-11-20T14:22:58;96838.69;;;5.61;100.00
70506;BME280;58032;49.820;6.274;2022-11-20T14:25:33;96830.41;;;5.58;100.00
70506;BME280;58032;49.820;6.274;2022-11-20T14:28:05;96818.66;;;5.50;100.00
70506;BME280;58032;49.820;6.274;2022-11-20T14:30:46;96813.06;;;5.24;100.00